Time;durP1;ratioP1;P1;durP2;ratioP2;P2;SDS_P1;SDS_P2;PMS_P1;PMS_P2;Temp;Humidity;BMP_temperature;BMP_pressure;BME280_temperature;BME280_humidity;BME280_pressure;Samples;Min_cycle;Max_cycle;Signal;HPM_P1;HPM_P2
2022/04/17 00:02:23;;;;;;;4.00;3.90;;;;;;;;;;5054571;28;20415;-72
2022/04/17 00:04:49;;;;;;;4.03;3.60;;;;;;;;;;5054435;28;20478;-73
2022/04/17 00:07:15;;;;;;;3.40;3.30;;;;;;;;;;5054808;28;20399;-71
2022/04/17 00:09:41;;;;;;;4.97;4.63;;;;;;;;;;5054485;28;20417;-72
2022/04/17 00:12:08;;;;;;;3.77;3.57;;;;;;;;;;5054495;28;20395;-72
2022/04/17 00:14:34;;;;;;;3.60;3.50;;;;;;;;;;5054444;28;20419;-72
2022/04/17 00:17:01;;;;;;;3.87;3.67;;;;;;;;;;5054400;28;20407;-73
2022/04/17 00:19:27;;;;;;;3.57;3.47;;;;;;;;;;5054501;28;20492;-72
2022/04/17 00:21:53;;;;;;;4.10;3.80;;;;;;;;;;5054246;28;20478;-72
2022/04/17 00:24:19;;;;;;;3.63;3.50;;;;;;;;;;5054086;28;20529;-72
2022/04/17 00:26:45;;;;;;;3.30;3.20;;;;;;;;;;5053832;28;20801;-74
2022/04/17 00:29:11;;;;;;;4.23;3.87;;;;;;;;;;5054111;28;20426;-72
2022/04/17 00:31:37;;;;;;;3.37;3.17;;;;;;;;;;5052853;28;20445;-75
2022/04/17 00:34:03;;;;;;;3.80;3.70;;;;;;;;;;5053995;28;20434;-76
2022/04/17 00:36:29;;;;;;;3.67;3.47;;;;;;;;;;5053985;28;20403;-73
2022/04/17 00:38:55;;;;;;;4.10;3.03;;;;;;;;;;5053766;28;20448;-71
2022/04/17 00:41:21;;;;;;;3.80;3.60;;;;;;;;;;5053934;28;20777;-71
2022/04/17 00:43:48;;;;;;;3.60;3.50;;;;;;;;;;5053815;28;20470;-73
2022/04/17 00:46:15;;;;;;;4.40;4.20;;;;;;;;;;5053897;28;20465;-72
2022/04/17 00:48:41;;;;;;;4.37;3.93;;;;;;;;;;5053788;28;20423;-71
2022/04/17 00:51:08;;;;;;;3.40;3.30;;;;;;;;;;5054214;28;20410;-74
2022/04/17 00:53:35;;;;;;;3.40;3.30;;;;;;;;;;5054803;28;20407;-72
2022/04/17 00:56:02;;;;;;;4.00;3.77;;;;;;;;;;5053820;28;20410;-76
2022/04/17 00:58:30;;;;;;;3.73;3.40;;;;;;;;;;5053693;28;20403;-72
2022/04/17 01:00:56;;;;;;;5.47;3.60;;;;;;;;;;5053838;28;20406;-72
2022/04/17 01:03:22;;;;;;;8.03;3.80;;;;;;;;;;5053631;28;20438;-74
2022/04/17 01:05:48;;;;;;;5.33;3.23;;;;;;;;;;5053754;28;20389;-72
2022/04/17 01:08:14;;;;;;;3.90;3.80;;;;;;;;;;5053810;28;20378;-72
2022/04/17 01:10:41;;;;;;;3.40;3.13;;;;;;;;;;5053531;28;20386;-72
2022/04/17 01:13:10;;;;;;;3.50;3.40;;;;;;;;;;5054248;28;20394;-72
2022/04/17 01:15:37;;;;;;;3.60;3.40;;;;;;;;;;5053780;28;20378;-72
2022/04/17 01:18:03;;;;;;;3.53;3.33;;;;;;;;;;5053553;28;20419;-71
2022/04/17 01:20:30;;;;;;;3.07;2.93;;;;;;;;;;5053556;28;20381;-72
2022/04/17 01:28:26;;;;;;;3.10;3.00;;;;;;;;;;5053738;28;20494;-71
2022/04/17 01:30:55;;;;;;;3.03;2.93;;;;;;;;;;5053467;28;20443;-72
2022/04/17 01:33:23;;;;;;;3.30;3.20;;;;;;;;;;5053319;28;20732;-77
2022/04/17 01:35:49;;;;;;;2.97;2.87;;;;;;;;;;5052806;28;20435;-87
2022/04/17 01:38:15;;;;;;;2.90;2.77;;;;;;;;;;5055452;28;20398;-78
2022/04/17 01:40:41;;;;;;;3.10;2.80;;;;;;;;;;5057889;28;20470;-79
2022/04/17 01:43:08;;;;;;;3.37;3.00;;;;;;;;;;5056786;28;20842;-80
2022/04/17 01:45:34;;;;;;;2.53;2.53;;;;;;;;;;5056546;28;20398;-71
2022/04/17 01:48:00;;;;;;;2.90;2.90;;;;;;;;;;5056038;28;20460;-77
2022/04/17 01:50:27;;;;;;;3.00;2.90;;;;;;;;;;5057476;28;20410;-74
2022/04/17 01:52:53;;;;;;;3.93;3.33;;;;;;;;;;5056547;28;20421;-73
2022/04/17 01:55:19;;;;;;;3.10;3.00;;;;;;;;;;5057077;28;20886;-72
2022/04/17 01:57:45;;;;;;;3.33;3.23;;;;;;;;;;5057091;28;20948;-71
2022/04/17 02:00:12;;;;;;;3.00;2.80;;;;;;;;;;5057052;28;20419;-75
2022/04/17 02:02:38;;;;;;;2.97;2.93;;;;;;;;;;5056790;28;20469;-74
2022/04/17 02:05:04;;;;;;;3.03;3.00;;;;;;;;;;5057037;28;20480;-74
2022/04/17 02:07:30;;;;;;;3.20;3.10;;;;;;;;;;5056816;28;20885;-71
2022/04/17 02:09:56;;;;;;;3.13;3.03;;;;;;;;;;5056886;28;20496;-72
2022/04/17 02:12:22;;;;;;;3.50;3.30;;;;;;;;;;5056774;28;20388;-72
2022/04/17 02:14:48;;;;;;;3.30;3.20;;;;;;;;;;5056709;28;20827;-72
2022/04/17 02:17:14;;;;;;;3.40;3.20;;;;;;;;;;5056658;28;20474;-77
2022/04/17 02:19:40;;;;;;;3.53;3.43;;;;;;;;;;5056523;28;20486;-75
2022/04/17 02:22:06;;;;;;;2.87;2.77;;;;;;;;;;5056616;28;20484;-71
2022/04/17 02:24:32;;;;;;;3.27;3.17;;;;;;;;;;5056732;28;20474;-71
2022/04/17 02:26:59;;;;;;;3.57;3.47;;;;;;;;;;5055264;28;20398;-73
2022/04/17 02:29:25;;;;;;;3.47;3.30;;;;;;;;;;5056540;28;20865;-73
2022/04/17 02:31:51;;;;;;;3.33;3.23;;;;;;;;;;5057437;28;20397;-71
2022/04/17 02:34:17;;;;;;;3.73;3.53;;;;;;;;;;5057246;28;20757;-77
2022/04/17 02:36:43;;;;;;;3.10;3.00;;;;;;;;;;5056976;28;20389;-73
2022/04/17 02:39:09;;;;;;;3.53;3.43;;;;;;;;;;5056586;28;20394;-74
2022/04/17 02:41:35;;;;;;;3.40;3.30;;;;;;;;;;5056557;28;20501;-73
2022/04/17 02:44:01;;;;;;;3.67;3.43;;;;;;;;;;5056335;28;20807;-72
2022/04/17 02:49:12;;;;;;;5.33;3.27;;;;;;;;;;5056084;28;20441;-80
2022/04/17 02:51:38;;;;;;;4.40;4.20;;;;;;;;;;5055809;28;20391;-74
2022/04/17 02:54:04;;;;;;;3.17;3.10;;;;;;;;;;5055988;28;20389;-71
2022/04/17 02:56:33;;;;;;;3.23;3.13;;;;;;;;;;5055929;28;20489;-71
2022/04/17 02:58:59;;;;;;;3.87;3.67;;;;;;;;;;5056222;28;20810;-73
2022/04/17 03:06:56;;;;;;;3.60;3.50;;;;;;;;;;5055893;28;20444;-72
2022/04/17 03:09:22;;;;;;;3.50;3.20;;;;;;;;;;5055959;28;20506;-83
2022/04/17 03:11:48;;;;;;;3.83;3.53;;;;;;;;;;5056219;28;20411;-73
2022/04/17 03:14:14;;;;;;;3.23;3.23;;;;;;;;;;5055770;28;20470;-76
2022/04/17 03:16:40;;;;;;;3.80;3.70;;;;;;;;;;5055677;28;20403;-76
2022/04/17 03:19:06;;;;;;;3.13;3.07;;;;;;;;;;5055712;28;20454;-87
2022/04/17 03:21:33;;;;;;;3.97;3.63;;;;;;;;;;5057446;28;20402;-71
2022/04/17 03:23:59;;;;;;;3.50;3.30;;;;;;;;;;5055519;28;20411;-79
2022/04/17 03:26:25;;;;;;;5.43;3.60;;;;;;;;;;5055884;28;20381;-72
2022/04/17 03:28:54;;;;;;;4.10;3.83;;;;;;;;;;5055337;28;20382;-73
2022/04/17 03:31:20;;;;;;;4.03;3.83;;;;;;;;;;5054569;28;20956;-88
2022/04/17 03:33:46;;;;;;;3.20;3.10;;;;;;;;;;5055909;28;20547;-71
2022/04/17 03:36:12;;;;;;;3.93;3.73;;;;;;;;;;5055533;28;20440;-72
2022/04/17 03:38:38;;;;;;;3.87;3.67;;;;;;;;;;5055334;28;20547;-71
2022/04/17 03:41:04;;;;;;;3.30;3.20;;;;;;;;;;5055178;28;20449;-71
2022/04/17 03:43:30;;;;;;;4.93;3.77;;;;;;;;;;5055131;28;20409;-71
2022/04/17 03:45:57;;;;;;;3.73;3.57;;;;;;;;;;5055045;28;20921;-72
2022/04/17 03:48:23;;;;;;;3.70;3.60;;;;;;;;;;5055124;28;20477;-72
2022/04/17 03:50:50;;;;;;;4.37;4.17;;;;;;;;;;5055267;28;20411;-80
2022/04/17 03:53:16;;;;;;;9.40;4.20;;;;;;;;;;5054909;28;20454;-73
2022/04/17 03:55:42;;;;;;;3.87;3.70;;;;;;;;;;5054921;28;20407;-81
2022/04/17 03:58:08;;;;;;;4.27;3.67;;;;;;;;;;5053964;28;20414;-75
2022/04/17 04:00:34;;;;;;;4.83;4.20;;;;;;;;;;5054867;28;20823;-77
2022/04/17 04:03:01;;;;;;;4.47;4.27;;;;;;;;;;5054053;28;20448;-74
2022/04/17 04:05:27;;;;;;;4.00;3.80;;;;;;;;;;5054841;28;20620;-72
2022/04/17 04:07:53;;;;;;;4.87;4.67;;;;;;;;;;5054656;28;20407;-82
2022/04/17 04:10:18;;;;;;;3.90;3.80;;;;;;;;;;5054745;28;20407;-73
2022/04/17 04:12:45;;;;;;;4.60;4.50;;;;;;;;;;5055650;28;20399;-86
2022/04/17 04:15:11;;;;;;;5.10;4.70;;;;;;;;;;5064774;28;20477;-76
2022/04/17 04:17:37;;;;;;;4.70;4.60;;;;;;;;;;5054808;28;20412;-71
2022/04/17 04:20:04;;;;;;;3.90;3.80;;;;;;;;;;5054421;28;20441;-77
2022/04/17 04:22:30;;;;;;;4.70;4.53;;;;;;;;;;5054541;28;20910;-71
2022/04/17 04:24:56;;;;;;;4.73;4.53;;;;;;;;;;5054438;28;20423;-75
2022/04/17 04:30:07;;;;;;;5.23;5.03;;;;;;;;;;5054667;28;20397;-80
2022/04/17 04:32:33;;;;;;;5.70;5.30;;;;;;;;;;5054385;28;20494;-73
2022/04/17 04:35:02;;;;;;;5.67;5.17;;;;;;;;;;5054166;28;20561;-75
2022/04/17 04:37:28;;;;;;;5.40;5.20;;;;;;;;;;5054292;28;20399;-75
2022/04/17 04:39:56;;;;;;;4.60;4.40;;;;;;;;;;5053896;28;20437;-71
2022/04/17 04:42:22;;;;;;;4.90;4.70;;;;;;;;;;5054241;28;20431;-73
2022/04/17 04:46:06;;;;;;;5.70;5.30;;;;;;;;;;5054209;28;20906;-71
2022/04/17 04:47:35;;;;;;;4.30;4.20;;;;;;;;;;5055466;28;20418;-75
2022/04/17 04:50:01;;;;;;;6.23;5.83;;;;;;;;;;5056902;28;20438;-74
2022/04/17 04:52:27;;;;;;;5.13;4.80;;;;;;;;;;5054846;28;20447;-71
2022/04/17 04:54:53;;;;;;;4.47;4.37;;;;;;;;;;5053782;28;20474;-71
2022/04/17 04:57:19;;;;;;;5.50;5.10;;;;;;;;;;5054987;28;20435;-84
2022/04/17 04:59:45;;;;;;;5.50;5.10;;;;;;;;;;5054360;28;20474;-80
2022/04/17 05:02:14;;;;;;;5.30;5.00;;;;;;;;;;5054238;28;20405;-88
2022/04/17 05:04:40;;;;;;;5.53;5.10;;;;;;;;;;5054654;28;20419;-82
2022/04/17 05:07:06;;;;;;;5.90;5.43;;;;;;;;;;5054210;28;20407;-85
2022/04/17 05:09:32;;;;;;;6.13;5.73;;;;;;;;;;5053824;28;20437;-83
2022/04/17 05:11:59;;;;;;;5.57;5.03;;;;;;;;;;5054024;28;20905;-83
2022/04/17 05:14:29;;;;;;;6.00;5.57;;;;;;;;;;5053726;28;20466;-86
2022/04/17 05:16:55;;;;;;;6.03;5.50;;;;;;;;;;5054159;28;20394;-84
2022/04/17 05:19:21;;;;;;;5.97;5.23;;;;;;;;;;5053598;28;20172;-83
2022/04/17 05:21:51;;;;;;;5.77;5.27;;;;;;;;;;5053718;28;20392;-80
2022/04/17 05:24:17;;;;;;;7.57;6.13;;;;;;;;;;5053583;28;20423;-79
2022/04/17 05:26:45;;;;;;;6.10;5.70;;;;;;;;;;5055675;28;20395;-77
2022/04/17 05:29:11;;;;;;;4.90;4.70;;;;;;;;;;5054858;28;20766;-74
2022/04/17 05:31:37;;;;;;;5.00;4.80;;;;;;;;;;5054953;28;20403;-75
2022/04/17 05:34:03;;;;;;;4.90;4.67;;;;;;;;;;5053563;28;20295;-71
2022/04/17 05:36:29;;;;;;;5.03;4.83;;;;;;;;;;5053294;28;20889;-72
2022/04/17 05:38:56;;;;;;;11.40;4.37;;;;;;;;;;5053166;28;20465;-73
2022/04/17 05:41:22;;;;;;;5.13;4.97;;;;;;;;;;5053310;28;20423;-81
2022/04/17 05:43:49;;;;;;;5.57;5.00;;;;;;;;;;5053243;28;20506;-71
2022/04/17 05:46:15;;;;;;;5.50;5.10;;;;;;;;;;5053135;28;20411;-71
2022/04/17 05:48:41;;;;;;;9.90;4.57;;;;;;;;;;5053182;28;20418;-75
2022/04/17 05:51:07;;;;;;;9.97;9.03;;;;;;;;;;5053296;28;20936;-80
2022/04/17 05:53:33;;;;;;;33.77;24.40;;;;;;;;;;5053744;28;20440;-78
2022/04/17 05:56:00;;;;;;;23.67;18.60;;;;;;;;;;5058390;28;20425;-77
2022/04/17 05:58:26;;;;;;;10.23;6.40;;;;;;;;;;5053539;28;20389;-82
2022/04/17 06:00:53;;;;;;;6.30;5.67;;;;;;;;;;5053483;28;20399;-79
2022/04/17 06:03:19;;;;;;;3.80;3.70;;;;;;;;;;5052079;28;20408;-83
2022/04/17 06:05:45;;;;;;;5.40;5.20;;;;;;;;;;5053462;28;20399;-79
2022/04/17 06:08:11;;;;;;;4.23;4.07;;;;;;;;;;5053425;28;20497;-80
2022/04/17 06:10:37;;;;;;;4.73;4.43;;;;;;;;;;5053176;28;20417;-85
2022/04/17 06:13:03;;;;;;;4.90;4.67;;;;;;;;;;5052132;28;20447;-81
2022/04/17 06:15:29;;;;;;;4.50;4.33;;;;;;;;;;5051953;28;20485;-85
2022/04/17 06:17:55;;;;;;;4.50;4.40;;;;;;;;;;5053367;28;20509;-81
2022/04/17 06:20:23;;;;;;;4.80;4.50;;;;;;;;;;5053435;28;20422;-88
2022/04/17 06:22:50;;;;;;;3.83;3.73;;;;;;;;;;5053175;28;20411;-80
2022/04/17 06:25:16;;;;;;;3.67;3.27;;;;;;;;;;5054787;28;20802;-81
2022/04/17 06:27:46;;;;;;;3.80;3.70;;;;;;;;;;5057024;28;20431;-79
2022/04/17 06:30:13;;;;;;;3.63;3.40;;;;;;;;;;5056693;28;20411;-84
2022/04/17 06:32:40;;;;;;;4.17;3.90;;;;;;;;;;5056416;28;20377;-86
2022/04/17 06:35:07;;;;;;;3.53;3.43;;;;;;;;;;5056411;28;20441;-80
2022/04/17 06:37:45;;;;;;;3.43;3.33;;;;;;;;;;5056440;28;20385;-76
2022/04/17 06:40:11;;;;;;;3.13;2.93;;;;;;;;;;5056042;28;20623;-83
2022/04/17 06:42:37;;;;;;;3.20;3.10;;;;;;;;;;5056130;28;20374;-78
2022/04/17 06:45:03;;;;;;;7.00;6.40;;;;;;;;;;5056055;28;20735;-77
2022/04/17 06:47:31;;;;;;;9.30;8.50;;;;;;;;;;5054787;28;20402;-79
2022/04/17 06:49:57;;;;;;;2.90;2.80;;;;;;;;;;5055969;28;20483;-81
2022/04/17 06:52:23;;;;;;;3.67;3.37;;;;;;;;;;5055836;28;20415;-78
2022/04/17 06:54:49;;;;;;;2.90;2.80;;;;;;;;;;5055816;28;20456;-75
2022/04/17 06:57:15;;;;;;;3.07;2.87;;;;;;;;;;5055901;28;20403;-82
2022/04/17 06:59:41;;;;;;;3.33;3.13;;;;;;;;;;5056348;28;20840;-83
2022/04/17 07:02:07;;;;;;;2.97;2.87;;;;;;;;;;5055784;28;20403;-78
2022/04/17 07:04:33;;;;;;;2.70;2.60;;;;;;;;;;5055548;28;20794;-82
2022/04/17 07:06:59;;;;;;;3.17;2.80;;;;;;;;;;5055624;28;20411;-83
2022/04/17 07:09:25;;;;;;;2.47;2.37;;;;;;;;;;5055647;28;20400;-76
2022/04/17 07:11:51;;;;;;;1.87;1.87;;;;;;;;;;5055512;28;20399;-76
2022/04/17 07:14:18;;;;;;;2.63;2.43;;;;;;;;;;5055418;28;20806;-78
2022/04/17 07:16:46;;;;;;;2.50;2.40;;;;;;;;;;5055864;28;20476;-80
2022/04/17 07:19:14;;;;;;;3.07;2.30;;;;;;;;;;5055409;28;20404;-74
2022/04/17 07:21:40;;;;;;;2.53;2.43;;;;;;;;;;5055721;28;20434;-85
2022/04/17 07:24:06;;;;;;;2.20;2.20;;;;;;;;;;5055535;28;20421;-76
2022/04/17 07:26:32;;;;;;;2.50;2.50;;;;;;;;;;5055418;28;20414;-80
2022/04/17 07:28:58;;;;;;;3.43;3.33;;;;;;;;;;5055452;28;20407;-80
2022/04/17 07:31:24;;;;;;;2.97;2.87;;;;;;;;;;5055431;28;20886;-79
2022/04/17 07:33:50;;;;;;;2.53;2.33;;;;;;;;;;5055075;28;20441;-86
2022/04/17 07:36:16;;;;;;;2.43;2.33;;;;;;;;;;5058316;28;20415;-79
2022/04/17 07:38:42;;;;;;;2.33;2.23;;;;;;;;;;5057376;28;20406;-82
2022/04/17 07:41:08;;;;;;;5.30;4.80;;;;;;;;;;5055879;28;20977;-70
2022/04/17 07:43:34;;;;;;;4.80;4.50;;;;;;;;;;5055243;28;20403;-70
2022/04/17 07:46:00;;;;;;;9.60;8.70;;;;;;;;;;5055173;28;20408;-67
2022/04/17 07:48:26;;;;;;;5.03;4.70;;;;;;;;;;5055162;28;20414;-68
2022/04/17 07:50:54;;;;;;;5.73;5.27;;;;;;;;;;5054062;28;20431;-71
2022/04/17 07:53:20;;;;;;;2.43;2.43;;;;;;;;;;5054879;28;20497;-70
2022/04/17 07:55:46;;;;;;;2.67;2.47;;;;;;;;;;5054857;28;20411;-72
2022/04/17 07:58:34;;;;;;;2.10;2.07;;;;;;;;;;5052169;28;20415;-70
2022/04/17 08:01:10;;;;;;;1.90;1.80;;;;;;;;;;5053488;28;20890;-69
2022/04/17 08:03:46;;;;;;;2.60;2.50;;;;;;;;;;5053507;28;20501;-72
2022/04/17 08:06:15;;;;;;;2.30;2.20;;;;;;;;;;5053400;28;20411;-70
2022/04/17 08:08:41;;;;;;;11.00;9.63;;;;;;;;;;5053228;28;20413;-72
2022/04/17 08:11:07;;;;;;;2.60;2.50;;;;;;;;;;5054354;28;20419;-72
2022/04/17 08:13:34;;;;;;;2.20;2.10;;;;;;;;;;5054447;28;20458;-70
2022/04/17 08:16:00;;;;;;;2.30;2.20;;;;;;;;;;5054427;28;20407;-72
2022/04/17 08:18:26;;;;;;;3.43;3.27;;;;;;;;;;5054517;28;20407;-73
2022/04/17 08:20:52;;;;;;;2.93;2.20;;;;;;;;;;5054224;28;20396;-70
2022/04/17 08:23:18;;;;;;;2.13;2.10;;;;;;;;;;5054227;28;20499;-73
2022/04/17 08:25:44;;;;;;;2.03;2.00;;;;;;;;;;5054171;28;20399;-70
2022/04/17 08:28:10;;;;;;;2.13;2.03;;;;;;;;;;5054224;28;20398;-69
2022/04/17 08:30:40;;;;;;;1.97;1.83;;;;;;;;;;5054140;28;20485;-70
2022/04/17 08:33:06;;;;;;;1.70;1.70;;;;;;;;;;5054044;28;20403;-69
2022/04/17 08:35:33;;;;;;;2.13;2.13;;;;;;;;;;5053534;28;20548;-69
2022/04/17 08:38:00;;;;;;;1.90;1.90;;;;;;;;;;5052701;28;20418;-71
2022/04/17 08:40:27;;;;;;;2.13;2.13;;;;;;;;;;5053189;28;20481;-71
2022/04/17 08:42:53;;;;;;;3.17;2.00;;;;;;;;;;5054122;28;20403;-69
2022/04/17 08:45:19;;;;;;;2.63;2.10;;;;;;;;;;5053854;28;20449;-70
2022/04/17 08:47:45;;;;;;;2.23;1.93;;;;;;;;;;5053546;28;20816;-69
2022/04/17 08:50:13;;;;;;;2.27;2.17;;;;;;;;;;5052460;28;20525;-70
2022/04/17 08:52:39;;;;;;;3.43;2.90;;;;;;;;;;5052545;28;20427;-68
2022/04/17 08:55:06;;;;;;;2.17;2.00;;;;;;;;;;5053642;28;20474;-69
2022/04/17 08:57:32;;;;;;;2.33;2.33;;;;;;;;;;5053729;28;20482;-71
2022/04/17 08:59:58;;;;;;;2.00;2.00;;;;;;;;;;5051940;28;20853;-71
2022/04/17 09:02:25;;;;;;;2.10;2.00;;;;;;;;;;5053536;28;20403;-70
2022/04/17 09:04:51;;;;;;;1.80;1.80;;;;;;;;;;5052247;28;20419;-70
2022/04/17 09:07:17;;;;;;;2.80;2.13;;;;;;;;;;5053568;28;20395;-69
2022/04/17 09:09:50;;;;;;;2.03;2.03;;;;;;;;;;5053505;28;20407;-70
2022/04/17 09:12:20;;;;;;;2.30;2.20;;;;;;;;;;5053564;28;20399;-70
2022/04/17 09:14:46;;;;;;;2.20;2.10;;;;;;;;;;5053359;28;20458;-70
2022/04/17 09:17:12;;;;;;;1.70;1.70;;;;;;;;;;5053423;28;20485;-71
2022/04/17 09:19:38;;;;;;;1.93;1.83;;;;;;;;;;5053305;28;20423;-72
2022/04/17 09:22:09;;;;;;;2.73;1.70;;;;;;;;;;5053700;28;20410;-70
2022/04/17 09:24:36;;;;;;;1.67;1.67;;;;;;;;;;5053310;28;20408;-71
2022/04/17 09:27:03;;;;;;;2.23;2.03;;;;;;;;;;5053226;28;20932;-70
2022/04/17 09:29:31;;;;;;;1.83;1.83;;;;;;;;;;5051970;28;20423;-69
2022/04/17 09:31:58;;;;;;;2.67;1.83;;;;;;;;;;5053201;28;20958;-73
2022/04/17 09:34:24;;;;;;;1.70;1.60;;;;;;;;;;5051821;28;20481;-71
2022/04/17 09:37:00;;;;;;;1.90;1.90;;;;;;;;;;5053245;28;20409;-71
2022/04/17 09:39:33;;;;;;;2.17;1.90;;;;;;;;;;5053012;28;20957;-71
2022/04/17 09:42:01;;;;;;;2.13;1.93;;;;;;;;;;5053401;28;20407;-72
2022/04/17 09:44:34;;;;;;;2.00;1.90;;;;;;;;;;5053476;28;20408;-69
2022/04/17 09:47:01;;;;;;;1.90;1.80;;;;;;;;;;5053234;28;20403;-70
2022/04/17 09:49:27;;;;;;;1.90;1.90;;;;;;;;;;5053110;28;20517;-72
2022/04/17 09:52:09;;;;;;;1.77;1.77;;;;;;;;;;5053441;28;20462;-69
2022/04/17 09:54:35;;;;;;;4.80;1.87;;;;;;;;;;5052909;28;20565;-73
2022/04/17 09:57:01;;;;;;;4.20;3.77;;;;;;;;;;5053071;28;20852;-71
2022/04/17 09:59:27;;;;;;;2.00;1.90;;;;;;;;;;5053054;28;20451;-71
2022/04/17 10:01:55;;;;;;;5.37;2.30;;;;;;;;;;5057236;28;20497;-71
2022/04/17 10:04:24;;;;;;;1.30;1.30;;;;;;;;;;5056815;28;20422;-69
2022/04/17 10:06:51;;;;;;;2.23;2.00;;;;;;;;;;5056914;28;20409;-71
2022/04/17 10:09:17;;;;;;;2.10;2.10;;;;;;;;;;5056796;28;20417;-72
2022/04/17 10:11:43;;;;;;;2.10;2.00;;;;;;;;;;5055452;28;20429;-69
2022/04/17 10:14:09;;;;;;;1.67;1.67;;;;;;;;;;5056969;28;20469;-69
2022/04/17 10:16:35;;;;;;;1.70;1.70;;;;;;;;;;5056843;28;20402;-73
2022/04/17 10:19:24;;;;;;;2.20;1.53;;;;;;;;;;5056975;28;20927;-69
2022/04/17 10:21:51;;;;;;;4.87;1.60;;;;;;;;;;5056776;28;20882;-70
2022/04/17 10:24:23;;;;;;;1.83;1.83;;;;;;;;;;5056614;28;20454;-70
2022/04/17 10:26:54;;;;;;;1.50;1.40;;;;;;;;;;5055226;28;20441;-70
2022/04/17 10:29:26;;;;;;;3.27;1.97;;;;;;;;;;5056708;28;20426;-70
2022/04/17 10:32:07;;;;;;;1.87;1.77;;;;;;;;;;5056412;28;20410;-69
2022/04/17 10:34:39;;;;;;;2.10;1.30;;;;;;;;;;5056253;28;21062;-68
2022/04/17 10:37:11;;;;;;;1.50;1.50;;;;;;;;;;5056286;28;20452;-71
2022/04/17 10:39:39;;;;;;;2.20;1.53;;;;;;;;;;5056113;28;20468;-72
2022/04/17 10:42:08;;;;;;;1.77;1.70;;;;;;;;;;5056306;28;20883;-72
2022/04/17 10:44:38;;;;;;;2.20;2.07;;;;;;;;;;5056206;28;20441;-70
2022/04/17 10:47:05;;;;;;;1.63;1.63;;;;;;;;;;5056083;28;20396;-70
2022/04/17 10:49:32;;;;;;;1.57;1.57;;;;;;;;;;5056030;28;20969;-70
2022/04/17 10:51:59;;;;;;;3.40;2.03;;;;;;;;;;5056067;28;20878;-77
2022/04/17 10:54:25;;;;;;;1.40;1.40;;;;;;;;;;5055968;28;20471;-70
2022/04/17 10:56:54;;;;;;;1.83;1.70;;;;;;;;;;5055924;28;20408;-73
2022/04/17 10:59:28;;;;;;;1.33;1.23;;;;;;;;;;5055944;28;20412;-71
2022/04/17 11:02:06;;;;;;;1.50;1.50;;;;;;;;;;5055953;28;20938;-74
2022/04/17 11:04:38;;;;;;;2.20;1.37;;;;;;;;;;5056447;28;20478;-70
2022/04/17 11:07:04;;;;;;;1.60;1.60;;;;;;;;;;5055929;28;20410;-76
2022/04/17 11:09:31;;;;;;;1.50;1.50;;;;;;;;;;5055765;28;20417;-71
2022/04/17 11:12:21;;;;;;;1.60;1.60;;;;;;;;;;5055731;28;20966;-78
2022/04/17 11:15:02;;;;;;;1.50;1.50;;;;;;;;;;5055658;28;20961;-69
2022/04/17 11:17:29;;;;;;;2.97;1.27;;;;;;;;;;5055574;28;20859;-71
2022/04/17 11:19:56;;;;;;;1.97;1.40;;;;;;;;;;5055534;28;20915;-74
2022/04/17 11:22:26;;;;;;;1.83;1.53;;;;;;;;;;5055496;28;20773;-72
2022/04/17 11:24:56;;;;;;;1.43;1.43;;;;;;;;;;5055698;28;20397;-77
2022/04/17 11:27:36;;;;;;;1.50;1.40;;;;;;;;;;5055494;28;20403;-71
2022/04/17 11:30:03;;;;;;;1.50;1.50;;;;;;;;;;5055461;28;20896;-71
2022/04/17 11:32:29;;;;;;;1.43;1.20;;;;;;;;;;5055300;28;20399;-72
2022/04/17 11:35:01;;;;;;;1.17;1.17;;;;;;;;;;5055241;28;20976;-71
2022/04/17 11:37:28;;;;;;;1.20;1.10;;;;;;;;;;5055266;28;20406;-73
2022/04/17 11:39:54;;;;;;;0.80;0.80;;;;;;;;;;5055173;28;20470;-76
2022/04/17 11:42:21;;;;;;;0.90;0.90;;;;;;;;;;5055321;28;20490;-72
2022/04/17 11:44:48;;;;;;;1.23;1.23;;;;;;;;;;5055123;28;20416;-72
2022/04/17 11:47:14;;;;;;;0.70;0.70;;;;;;;;;;5055084;28;20413;-71
2022/04/17 11:49:40;;;;;;;1.10;1.10;;;;;;;;;;5054962;28;20776;-75
2022/04/17 11:52:10;;;;;;;1.10;1.10;;;;;;;;;;5054943;28;20416;-70
2022/04/17 11:54:36;;;;;;;0.90;0.90;;;;;;;;;;5054922;28;20572;-72
2022/04/17 11:57:03;;;;;;;2.00;0.90;;;;;;;;;;5054881;28;20405;-71
2022/04/17 11:59:28;;;;;;;1.03;0.90;;;;;;;;;;5054872;28;20416;-73
2022/04/17 12:02:12;;;;;;;0.80;0.80;;;;;;;;;;5054867;28;20404;-71
2022/04/17 12:04:38;;;;;;;1.03;1.03;;;;;;;;;;5054936;28;20516;-73
2022/04/17 12:07:04;;;;;;;0.90;0.90;;;;;;;;;;5053869;28;20472;-77
2022/04/17 12:09:30;;;;;;;0.90;0.90;;;;;;;;;;5054628;28;20465;-72
2022/04/17 12:11:56;;;;;;;0.90;0.90;;;;;;;;;;5054891;28;20772;-77
2022/04/17 12:14:32;;;;;;;1.73;1.17;;;;;;;;;;5054375;28;20803;-79
2022/04/17 12:16:58;;;;;;;1.57;1.57;;;;;;;;;;5054512;28;20396;-75
2022/04/17 12:19:25;;;;;;;1.93;1.40;;;;;;;;;;5054428;28;20508;-73
2022/04/17 12:21:52;;;;;;;1.60;1.50;;;;;;;;;;5054325;28;20417;-75
2022/04/17 12:24:18;;;;;;;1.10;1.10;;;;;;;;;;5053525;28;20410;-75
2022/04/17 12:26:45;;;;;;;1.97;1.23;;;;;;;;;;5054234;28;20409;-77
2022/04/17 12:29:11;;;;;;;1.30;1.20;;;;;;;;;;5054166;28;20416;-75
2022/04/17 12:31:37;;;;;;;1.50;1.50;;;;;;;;;;5054202;28;20400;-72
2022/04/17 12:34:10;;;;;;;1.57;1.47;;;;;;;;;;5054094;28;20511;-73
2022/04/17 12:36:42;;;;;;;2.77;1.60;;;;;;;;;;5054154;28;20409;-81
2022/04/17 12:39:08;;;;;;;1.17;1.17;;;;;;;;;;5052614;28;20424;-80
2022/04/17 12:41:42;;;;;;;1.20;1.20;;;;;;;;;;5053964;28;20409;-78
2022/04/17 12:44:08;;;;;;;1.13;1.13;;;;;;;;;;5054215;28;20427;-77
2022/04/17 12:46:35;;;;;;;0.90;0.90;;;;;;;;;;5054010;28;20777;-78
2022/04/17 12:49:02;;;;;;;0.60;0.60;;;;;;;;;;5054302;28;20512;-78
2022/04/17 12:51:28;;;;;;;1.63;0.97;;;;;;;;;;5055643;28;20873;-78
2022/04/17 12:53:54;;;;;;;0.83;0.83;;;;;;;;;;5054110;28;20462;-83
2022/04/17 12:56:25;;;;;;;0.87;0.87;;;;;;;;;;5054027;28;20908;-76
2022/04/17 12:58:51;;;;;;;1.00;0.90;;;;;;;;;;5054222;28;20405;-77
2022/04/17 13:01:43;;;;;;;1.03;0.90;;;;;;;;;;5053900;28;20430;-79
2022/04/17 13:04:20;;;;;;;0.97;0.97;;;;;;;;;;5052957;28;20465;-73
2022/04/17 13:06:46;;;;;;;1.17;1.17;;;;;;;;;;5054457;28;20784;-77
2022/04/17 13:09:16;;;;;;;1.43;1.40;;;;;;;;;;5054145;28;20914;-75
2022/04/17 13:11:43;;;;;;;0.90;0.90;;;;;;;;;;5053801;28;20437;-75
2022/04/17 13:14:09;;;;;;;1.17;1.03;;;;;;;;;;5053967;28;20993;-76
2022/04/17 13:16:46;;;;;;;0.90;0.90;;;;;;;;;;5053803;28;20484;-78
2022/04/17 13:19:12;;;;;;;0.93;0.93;;;;;;;;;;5053940;28;20456;-75
2022/04/17 13:21:38;;;;;;;1.47;1.20;;;;;;;;;;5053447;28;20450;-79
2022/04/17 13:24:04;;;;;;;0.77;0.77;;;;;;;;;;5053794;28;20424;-80
2022/04/17 13:26:31;;;;;;;0.93;0.93;;;;;;;;;;5053589;28;20423;-81
2022/04/17 13:28:57;;;;;;;1.37;1.00;;;;;;;;;;5053516;28;20450;-79
2022/04/17 13:31:23;;;;;;;9.13;1.20;;;;;;;;;;5053485;28;20413;-81
2022/04/17 13:33:49;;;;;;;1.20;1.20;;;;;;;;;;5053366;28;20514;-78
2022/04/17 13:36:15;;;;;;;1.10;1.10;;;;;;;;;;5056753;28;20410;-82
2022/04/17 13:38:40;;;;;;;0.90;0.90;;;;;;;;;;5056313;28;20416;-79
2022/04/17 13:41:07;;;;;;;2.30;1.40;;;;;;;;;;5057436;28;20459;-83
2022/04/17 13:43:33;;;;;;;1.43;1.33;;;;;;;;;;5056208;28;20935;-78
2022/04/17 13:45:59;;;;;;;1.10;1.10;;;;;;;;;;5057355;28;20413;-74
2022/04/17 13:48:25;;;;;;;1.27;1.17;;;;;;;;;;5057673;28;20414;-86
2022/04/17 13:50:51;;;;;;;0.77;0.77;;;;;;;;;;5057358;28;20491;-83
2022/04/17 13:53:17;;;;;;;1.00;1.00;;;;;;;;;;5055969;28;20791;-78
2022/04/17 13:55:44;;;;;;;0.80;0.80;;;;;;;;;;5057202;28;20416;-87
2022/04/17 13:58:10;;;;;;;0.70;0.70;;;;;;;;;;5057168;28;20868;-81
2022/04/17 14:00:36;;;;;;;1.13;1.13;;;;;;;;;;5057304;28;20884;-81
2022/04/17 14:03:02;;;;;;;2.93;0.80;;;;;;;;;;5055979;28;20460;-78
2022/04/17 14:05:28;;;;;;;2.30;1.00;;;;;;;;;;5057214;28;20500;-76
2022/04/17 14:07:56;;;;;;;1.67;1.00;;;;;;;;;;5056949;28;20469;-81
2022/04/17 14:10:22;;;;;;;1.93;1.70;;;;;;;;;;5056994;28;20883;-79
2022/04/17 14:12:48;;;;;;;1.20;1.20;;;;;;;;;;5057273;28;20442;-81
2022/04/17 14:15:14;;;;;;;1.07;1.07;;;;;;;;;;5056947;28;21047;-83
2022/04/17 14:17:40;;;;;;;0.83;0.83;;;;;;;;;;5056940;28;20432;-81
2022/04/17 14:20:06;;;;;;;0.83;0.83;;;;;;;;;;5056848;28;20465;-75
2022/04/17 14:22:34;;;;;;;0.90;0.90;;;;;;;;;;5056714;28;20416;-76
2022/04/17 14:25:00;;;;;;;0.83;0.83;;;;;;;;;;5057057;28;20411;-78
2022/04/17 14:27:26;;;;;;;1.10;1.10;;;;;;;;;;5056738;28;20413;-78
2022/04/17 14:29:54;;;;;;;1.10;1.10;;;;;;;;;;5056598;28;20400;-77
2022/04/17 14:32:20;;;;;;;1.00;1.00;;;;;;;;;;5056669;28;20931;-74
2022/04/17 14:34:46;;;;;;;1.43;1.00;;;;;;;;;;5060692;28;20500;-77
2022/04/17 14:37:13;;;;;;;1.10;1.10;;;;;;;;;;5057774;28;20903;-79
2022/04/17 14:39:39;;;;;;;1.10;1.00;;;;;;;;;;5056554;28;21029;-76
2022/04/17 14:42:07;;;;;;;2.83;1.30;;;;;;;;;;5056460;28;20811;-82
2022/04/17 14:44:33;;;;;;;2.50;1.07;;;;;;;;;;5056649;28;20474;-78
2022/04/17 14:46:58;;;;;;;1.00;1.00;;;;;;;;;;5055894;28;20403;-79
2022/04/17 14:49:24;;;;;;;1.30;1.30;;;;;;;;;;5056310;28;20427;-79
2022/04/17 14:51:51;;;;;;;1.00;1.00;;;;;;;;;;5056283;28;20427;-77
2022/04/17 14:54:18;;;;;;;1.33;1.33;;;;;;;;;;5056296;28;20497;-78
2022/04/17 14:56:44;;;;;;;1.40;1.20;;;;;;;;;;5056778;28;20397;-78
2022/04/17 14:59:11;;;;;;;7.10;1.03;;;;;;;;;;5056680;28;20939;-87
2022/04/17 15:01:37;;;;;;;1.10;1.10;;;;;;;;;;5056974;28;20395;-83